createdAt,value
2022-09-20T00:01:16.534Z,14.94
2022-09-20T00:03:47.773Z,14.93
2022-09-20T00:06:17.288Z,14.91
2022-09-20T00:08:44.704Z,14.95
2022-09-20T00:11:16.857Z,15.04
2022-09-20T00:13:45.819Z,15.07
2022-09-20T00:16:20.255Z,15.05
2022-09-20T00:18:55.877Z,14.97
2022-09-20T00:21:27.143Z,14.88
2022-09-20T00:23:54.518Z,14.85
2022-09-20T00:26:21.204Z,14.85
2022-09-20T00:28:47.866Z,14.82
2022-09-20T00:31:15.245Z,14.69
2022-09-20T00:34:00.790Z,14.58
2022-09-20T00:36:27.496Z,14.53
2022-09-20T00:39:04.071Z,14.46
2022-09-20T00:41:32.128Z,14.44
2022-09-20T00:44:00.552Z,14.48
2022-09-20T00:46:41.116Z,14.51
2022-09-20T00:49:21.116Z,14.53
2022-09-20T00:51:55.307Z,14.56
2022-09-20T00:54:24.707Z,14.51
2022-09-20T00:56:51.596Z,14.48
2022-09-20T00:59:33.031Z,14.41
2022-09-20T01:02:06.783Z,14.44
2022-09-20T01:04:35.240Z,14.36
2022-09-20T01:07:05.365Z,14.39
2022-09-20T01:09:32.056Z,14.37
2022-09-20T01:12:03.878Z,14.44
2022-09-20T01:14:30.817Z,14.39
2022-09-20T01:17:02.657Z,14.43
2022-09-20T01:19:48.838Z,14.49
2022-09-20T01:22:35.624Z,14.43
2022-09-20T01:25:14.691Z,14.44
2022-09-20T01:27:45.816Z,14.42
2022-09-20T01:30:25.756Z,14.40
2022-09-20T01:33:10.895Z,14.43
2022-09-20T01:35:41.257Z,14.39
2022-09-20T01:38:10.788Z,14.32
2022-09-20T01:40:49.025Z,14.28
2022-09-20T01:43:31.942Z,14.34
2022-09-20T01:46:02.214Z,14.37
2022-09-20T01:48:39.484Z,14.40
2022-09-20T01:51:12.000Z,14.40
2022-09-20T01:53:53.725Z,14.35
2022-09-20T01:56:38.471Z,14.33
2022-09-20T01:59:25.236Z,14.35
2022-09-20T02:01:51.897Z,14.37
2022-09-20T02:04:32.202Z,14.40
2022-09-20T02:07:14.889Z,14.41
2022-09-20T02:10:00.218Z,14.46
2022-09-20T02:12:52.760Z,14.46
2022-09-20T02:15:36.551Z,14.43
2022-09-20T02:18:05.813Z,14.40
2022-09-20T02:20:37.229Z,14.40
2022-09-20T02:23:27.778Z,14.37
2022-09-20T02:26:15.173Z,14.27
2022-09-20T02:29:13.081Z,14.25
2022-09-20T02:31:55.019Z,14.22
2022-09-20T02:34:39.846Z,14.16
2022-09-20T02:37:15.591Z,14.12
2022-09-20T02:40:17.634Z,14.14
2022-09-20T02:42:52.028Z,14.09
2022-09-20T02:45:35.590Z,14.03
2022-09-20T02:48:04.712Z,13.90
2022-09-20T02:50:51.589Z,13.86
2022-09-20T02:53:46.214Z,13.78
2022-09-20T02:56:15.885Z,13.71
2022-09-20T02:59:11.803Z,13.71
2022-09-20T03:02:07.481Z,13.72
2022-09-20T03:04:37.059Z,13.71
2022-09-20T03:07:35.972Z,13.75
2022-09-20T03:10:18.911Z,13.69
2022-09-20T03:13:17.868Z,13.69
2022-09-20T03:15:53.530Z,13.69
2022-09-20T03:18:33.439Z,13.66
2022-09-20T03:21:15.604Z,13.58
2022-09-20T03:24:09.159Z,13.53
2022-09-20T03:26:43.204Z,13.50
2022-09-20T03:29:36.294Z,13.55
2022-09-20T03:32:33.070Z,13.56
2022-09-20T03:35:37.950Z,13.54
2022-09-20T03:38:46.322Z,13.49
2022-09-20T03:41:45.129Z,13.46
2022-09-20T03:44:45.259Z,13.39
2022-09-20T03:47:24.969Z,13.27
2022-09-20T03:50:03.247Z,13.17
2022-09-20T03:52:53.423Z,13.09
2022-09-20T03:55:45.443Z,12.97
2022-09-20T03:58:42.037Z,12.90
2022-09-20T04:01:45.974Z,12.87
2022-09-20T04:04:33.143Z,12.82
2022-09-20T04:07:08.611Z,12.71
2022-09-20T04:09:51.093Z,12.71
2022-09-20T04:12:32.985Z,12.69
2022-09-20T04:15:16.064Z,12.66
2022-09-20T04:17:55.829Z,12.65
2022-09-20T04:20:39.991Z,12.60
2022-09-20T04:23:35.916Z,12.56
2022-09-20T04:26:03.456Z,12.55
2022-09-20T04:28:47.711Z,12.54
2022-09-20T04:31:56.389Z,12.58
2022-09-20T04:34:50.720Z,12.50
2022-09-20T04:37:27.215Z,12.44
2022-09-20T04:40:17.154Z,12.36
2022-09-20T04:42:46.677Z,12.36
2022-09-20T04:45:38.127Z,12.37
2022-09-20T04:48:38.797Z,12.41
2022-09-20T04:51:34.826Z,12.47
2022-09-20T04:54:22.954Z,12.47
2022-09-20T04:56:58.721Z,12.46
2022-09-20T04:59:58.068Z,12.40
2022-09-20T05:03:18.792Z,12.41
2022-09-20T05:06:06.608Z,12.43
2022-09-20T05:08:58.853Z,12.33
2022-09-20T05:12:15.054Z,12.35
2022-09-20T05:15:19.103Z,12.34
2022-09-20T05:18:10.884Z,12.35
2022-09-20T05:20:59.487Z,12.39
2022-09-20T05:23:39.986Z,12.47
2022-09-20T05:26:29.725Z,12.50
2022-09-20T05:29:10.032Z,12.52
2022-09-20T05:32:11.937Z,12.50
2022-09-20T05:35:22.991Z,12.58
2022-09-20T05:38:08.327Z,12.63
2022-09-20T05:41:00.283Z,12.68
2022-09-20T05:43:33.606Z,12.66
2022-09-20T05:46:16.260Z,12.65
2022-09-20T05:49:12.109Z,12.71
2022-09-20T05:51:47.844Z,12.90
2022-09-20T05:54:28.362Z,13.08
2022-09-20T05:57:36.727Z,13.32
2022-09-20T06:00:10.401Z,13.45
2022-09-20T06:02:51.836Z,13.59
2022-09-20T06:05:56.023Z,13.72
2022-09-20T06:08:46.551Z,13.78
2022-09-20T06:11:46.752Z,13.77
2022-09-20T06:14:19.687Z,13.92
2022-09-20T06:16:57.736Z,13.90
2022-09-20T06:19:36.937Z,13.98
2022-09-20T06:22:28.749Z,14.01
2022-09-20T06:25:02.954Z,14.13
2022-09-20T06:27:37.884Z,14.06
2022-09-20T06:30:43.406Z,13.87
2022-09-20T06:33:18.244Z,13.75
2022-09-20T06:35:53.055Z,13.66
2022-09-20T06:39:07.829Z,13.68
2022-09-20T06:41:35.653Z,13.96
2022-09-20T06:44:05.481Z,14.08
2022-09-20T06:46:34.904Z,14.23
2022-09-20T06:49:02.402Z,14.26
2022-09-20T06:51:34.853Z,14.31
2022-09-20T06:54:01.709Z,14.25
2022-09-20T06:56:31.598Z,14.17
2022-09-20T06:58:58.158Z,14.03
2022-09-20T07:01:30.110Z,14.18
2022-09-20T07:03:58.614Z,14.39
2022-09-20T07:06:26.734Z,14.51
2022-09-20T07:08:53.388Z,14.74
2022-09-20T07:11:20.379Z,14.68
2022-09-20T07:13:51.962Z,14.25
2022-09-20T07:16:19.073Z,13.95
2022-09-20T07:18:46.793Z,13.75
2022-09-20T07:21:15.712Z,13.71
2022-09-20T07:23:42.657Z,13.67
2022-09-20T07:26:27.929Z,13.70
2022-09-20T07:28:55.793Z,13.79
2022-09-20T07:31:25.550Z,13.85
2022-09-20T07:33:52.180Z,13.98
2022-09-20T07:36:18.993Z,14.02
2022-09-20T07:38:50.429Z,14.31
2022-09-20T07:41:22.729Z,14.74
2022-09-20T07:43:50.811Z,14.88
2022-09-20T07:46:19.254Z,14.90
2022-09-20T07:48:45.971Z,15.21
2022-09-20T07:51:13.824Z,15.52
2022-09-20T07:53:40.974Z,15.86
2022-09-20T07:56:10.354Z,16.26
2022-09-20T07:58:37.940Z,16.56
2022-09-20T08:01:08.143Z,16.61
2022-09-20T08:03:35.842Z,16.65
2022-09-20T08:06:05.609Z,16.78
2022-09-20T08:08:33.267Z,16.86
2022-09-20T08:11:14.363Z,17.08
2022-09-20T08:16:31.840Z,17.35
2022-09-20T08:19:00.868Z,17.85
2022-09-20T08:21:31.693Z,17.97
2022-09-20T08:23:59.219Z,17.69
2022-09-20T08:26:27.727Z,17.49
2022-09-20T08:28:56.859Z,17.41
2022-09-20T08:31:34.587Z,17.63
2022-09-20T08:34:06.510Z,18.09
2022-09-20T08:36:36.815Z,18.46
2022-09-20T08:42:12.398Z,18.78
2022-09-20T08:45:01.173Z,18.98
2022-09-20T08:47:32.715Z,19.29
2022-09-20T08:50:09.268Z,19.67
2022-09-20T08:52:39.754Z,20.00
2022-09-20T08:55:16.880Z,20.21
2022-09-20T08:57:47.513Z,20.34
2022-09-20T09:00:20.293Z,20.50
2022-09-20T09:02:47.393Z,20.53
2022-09-20T09:05:34.434Z,20.60
2022-09-20T09:08:08.316Z,20.75
2022-09-20T09:10:43.311Z,21.13
2022-09-20T09:13:18.859Z,21.73
2022-09-20T09:15:49.194Z,22.25
2022-09-20T09:18:15.910Z,22.55
2022-09-20T09:20:47.244Z,23.41
2022-09-20T09:23:27.358Z,25.35
2022-09-20T09:25:56.427Z,25.36
2022-09-20T09:28:25.275Z,26.31
2022-09-20T09:30:52.058Z,27.04
2022-09-20T09:33:25.253Z,30.65
2022-09-20T09:35:53.205Z,33.86
2022-09-20T09:38:25.879Z,32.73
2022-09-20T09:41:24.710Z,29.47
2022-09-20T09:44:04.843Z,26.29
2022-09-20T09:46:34.144Z,24.09
2022-09-20T09:49:17.203Z,22.78
2022-09-20T09:52:02.217Z,21.68
2022-09-20T09:54:36.239Z,20.97
2022-09-20T09:57:28.862Z,20.78
2022-09-20T10:00:20.996Z,20.70
2022-09-20T10:03:21.004Z,20.63
2022-09-20T10:06:05.558Z,22.16
2022-09-20T10:09:09.292Z,23.00
2022-09-20T10:12:04.867Z,25.52
2022-09-20T10:15:03.516Z,25.03
2022-09-20T10:17:52.123Z,25.90
2022-09-20T10:20:28.666Z,29.54
2022-09-20T10:23:45.499Z,34.47
2022-09-20T10:26:05.806Z,35.44
2022-09-20T10:29:11.571Z,37.25
2022-09-20T10:32:12.780Z,38.45
2022-09-20T10:35:11.766Z,36.61
2022-09-20T10:37:49.041Z,32.54
2022-09-20T10:40:16.088Z,29.02
2022-09-20T10:43:04.509Z,26.57
2022-09-20T10:48:41.574Z,23.13
2022-09-20T10:51:25.736Z,21.91
2022-09-20T10:53:52.432Z,21.07
2022-09-20T10:56:40.007Z,20.00
2022-09-20T10:59:30.293Z,19.01
2022-09-20T11:02:33.560Z,18.10
2022-09-20T11:05:24.369Z,17.78
2022-09-20T11:08:09.885Z,18.14
2022-09-20T11:10:51.505Z,20.27
2022-09-20T11:13:31.212Z,23.62
2022-09-20T11:16:11.908Z,26.09
2022-09-20T11:18:59.039Z,25.34
2022-09-20T11:21:39.030Z,23.68
2022-09-20T11:24:13.280Z,22.08
2022-09-20T11:26:52.238Z,20.98
2022-09-20T11:29:19.749Z,20.06
2022-09-20T11:31:50.985Z,19.25
2022-09-20T11:34:40.202Z,18.71
2022-09-20T11:37:09.323Z,18.01
2022-09-20T11:39:54.872Z,17.87
2022-09-20T11:42:28.275Z,17.92
2022-09-20T11:44:55.612Z,18.45
2022-09-20T11:48:10.491Z,19.03
2022-09-20T11:51:08.810Z,19.53
2022-09-20T11:54:16.203Z,25.09
2022-09-20T11:56:51.608Z,29.02
2022-09-20T11:59:35.909Z,32.08
2022-09-20T12:02:18.855Z,32.66
2022-09-20T12:04:49.784Z,30.83
2022-09-20T12:07:19.882Z,28.81
2022-09-20T12:09:54.014Z,27.72
2022-09-20T12:12:42.460Z,28.74
2022-09-20T12:15:21.340Z,31.81
2022-09-20T12:18:01.849Z,33.47
2022-09-20T12:20:39.447Z,30.87
2022-09-20T12:23:43.654Z,27.68
2022-09-20T12:26:21.245Z,25.77
2022-09-20T12:28:55.514Z,25.14
2022-09-20T12:31:26.606Z,24.70
2022-09-20T12:34:15.292Z,24.25
2022-09-20T12:36:46.588Z,23.98
2022-09-20T12:39:19.060Z,23.58
2022-09-20T12:41:56.131Z,23.20
2022-09-20T12:44:35.223Z,22.94
2022-09-20T12:47:14.480Z,22.89
2022-09-20T12:50:04.390Z,22.68
2022-09-20T12:52:52.903Z,22.71
2022-09-20T12:56:04.579Z,22.63
2022-09-20T12:58:53.919Z,22.60
2022-09-20T13:01:21.156Z,22.33
2022-09-20T13:03:52.236Z,22.04
2022-09-20T13:06:19.362Z,21.72
2022-09-20T13:08:48.161Z,21.56
2022-09-20T13:11:24.131Z,21.46
2022-09-20T13:14:09.055Z,21.12
2022-09-20T13:17:06.406Z,20.57
2022-09-20T13:19:43.303Z,20.25
2022-09-20T13:22:35.200Z,20.04
2022-09-20T13:25:06.202Z,19.90
2022-09-20T13:27:36.634Z,19.86
2022-09-20T13:30:23.668Z,19.89
2022-09-20T13:32:51.613Z,20.20
2022-09-20T13:35:24.179Z,20.68
2022-09-20T13:37:56.803Z,20.95
2022-09-20T13:40:31.939Z,21.11
2022-09-20T13:43:22.137Z,21.23
2022-09-20T13:46:07.401Z,21.23
2022-09-20T13:48:36.624Z,21.11
2022-09-20T13:51:04.629Z,21.01
2022-09-20T13:53:47.108Z,20.85
2022-09-20T13:56:21.881Z,20.52
2022-09-20T13:58:51.802Z,20.18
2022-09-20T14:01:28.046Z,19.89
2022-09-20T14:03:57.523Z,19.71
2022-09-20T14:06:29.996Z,19.66
2022-09-20T14:08:59.632Z,19.65
2022-09-20T14:11:31.101Z,19.81
2022-09-20T14:14:01.807Z,19.94
2022-09-20T14:16:34.506Z,20.08
2022-09-20T14:19:02.464Z,20.12
2022-09-20T14:21:34.770Z,20.14
2022-09-20T14:24:27.519Z,20.15
2022-09-20T14:27:16.518Z,20.08
2022-09-20T14:29:54.477Z,20.00
2022-09-20T14:32:21.170Z,19.90
2022-09-20T14:35:27.213Z,19.94
2022-09-20T14:38:01.898Z,19.91
2022-09-20T14:40:40.466Z,19.86
2022-09-20T14:43:07.631Z,19.74
2022-09-20T14:45:39.965Z,19.64
2022-09-20T14:48:26.503Z,19.63
2022-09-20T14:51:16.318Z,19.63
2022-09-20T14:53:44.762Z,19.56
2022-09-20T14:56:14.694Z,19.53
2022-09-20T14:59:21.070Z,19.45
2022-09-20T15:01:59.084Z,19.25
2022-09-20T15:04:28.182Z,19.14
2022-09-20T15:06:57.010Z,19.13
2022-09-20T15:09:23.779Z,19.13
2022-09-20T15:12:00.837Z,19.06
2022-09-20T15:14:27.615Z,18.94
2022-09-20T15:16:54.732Z,18.88
2022-09-20T15:19:21.562Z,18.91
2022-09-20T15:21:48.207Z,18.97
2022-09-20T15:24:17.699Z,19.00
2022-09-20T15:26:47.649Z,18.89
2022-09-20T15:29:17.833Z,18.94
2022-09-20T15:31:47.567Z,18.92
2022-09-20T15:34:14.758Z,18.83
2022-09-20T15:36:41.677Z,18.77
2022-09-20T15:39:09.076Z,18.81
2022-09-20T15:41:36.251Z,18.86
2022-09-20T15:44:04.766Z,19.00
2022-09-20T15:46:32.221Z,19.04
2022-09-20T15:49:01.274Z,18.95
2022-09-20T15:51:29.436Z,18.81
2022-09-20T15:53:57.342Z,18.75
2022-09-20T15:56:33.475Z,18.64
2022-09-20T15:59:02.370Z,18.52
2022-09-20T16:01:32.332Z,18.37
2022-09-20T16:03:59.402Z,18.30
2022-09-20T16:06:26.159Z,18.26
2022-09-20T16:08:53.058Z,18.30
2022-09-20T16:11:22.917Z,18.33
2022-09-20T16:13:56.737Z,18.36
2022-09-20T16:16:25.269Z,18.30
2022-09-20T16:19:11.104Z,18.24
2022-09-20T16:21:39.755Z,18.19
2022-09-20T16:24:07.356Z,18.08
2022-09-20T16:26:35.935Z,17.92
2022-09-20T16:29:04.980Z,17.88
2022-09-20T16:31:42.982Z,17.83
2022-09-20T16:34:29.689Z,17.79
2022-09-20T16:37:06.553Z,17.70
2022-09-20T16:39:33.458Z,17.65
2022-09-20T16:42:05.567Z,17.64
2022-09-20T16:44:34.053Z,17.61
2022-09-20T16:47:01.056Z,17.59
2022-09-20T16:49:29.836Z,17.56
2022-09-20T16:51:56.545Z,17.54
2022-09-20T16:54:23.383Z,17.49
2022-09-20T16:56:51.206Z,17.47
2022-09-20T16:59:23.136Z,17.46
2022-09-20T17:01:50.662Z,17.38
2022-09-20T17:04:18.409Z,17.27
2022-09-20T17:06:46.037Z,17.19
2022-09-20T17:09:13.763Z,17.10
2022-09-20T17:11:45.619Z,16.95
2022-09-20T17:14:13.189Z,16.82
2022-09-20T17:16:41.337Z,16.70
2022-09-20T17:19:12.139Z,16.66
2022-09-20T17:21:43.385Z,16.55
2022-09-20T17:24:10.317Z,16.41
2022-09-20T17:26:41.726Z,16.32
2022-09-20T17:29:10.457Z,16.20
2022-09-20T17:31:39.375Z,16.11
2022-09-20T17:34:07.809Z,16.08
2022-09-20T17:36:39.180Z,16.08
2022-09-20T17:39:06.964Z,16.06
2022-09-20T17:41:37.407Z,16.01
2022-09-20T17:44:12.321Z,15.93
2022-09-20T17:46:41.296Z,15.84
2022-09-20T17:49:10.933Z,15.72
2022-09-20T17:51:40.096Z,15.65
2022-09-20T17:54:09.979Z,15.54
2022-09-20T17:56:37.174Z,15.50
2022-09-20T17:59:05.675Z,15.49
2022-09-20T18:01:34.365Z,15.48
2022-09-20T18:04:02.352Z,15.49
2022-09-20T18:06:32.564Z,15.38
2022-09-20T18:09:02.566Z,15.34
2022-09-20T18:11:31.674Z,15.31
2022-09-20T18:13:59.410Z,15.30
2022-09-20T18:16:26.745Z,15.31
2022-09-20T18:18:53.600Z,15.32
2022-09-20T18:21:22.500Z,15.29
2022-09-20T18:23:50.338Z,15.25
2022-09-20T18:26:22.727Z,15.23
2022-09-20T18:28:58.810Z,15.17
2022-09-20T18:31:35.812Z,15.07
2022-09-20T18:34:05.096Z,15.07
2022-09-20T18:36:34.060Z,15.04
2022-09-20T18:39:00.666Z,15.02
2022-09-20T18:41:31.736Z,15.02
2022-09-20T18:43:59.424Z,15.04
2022-09-20T18:46:29.258Z,15.04
2022-09-20T18:48:57.126Z,15.00
2022-09-20T18:51:30.876Z,14.93
2022-09-20T18:53:58.319Z,14.95
2022-09-20T18:56:26.657Z,14.98
2022-09-20T18:58:58.721Z,14.97
2022-09-20T19:01:34.500Z,14.95
2022-09-20T19:04:26.266Z,14.94
2022-09-20T19:07:12.510Z,14.91
2022-09-20T19:10:04.101Z,14.91
2022-09-20T19:12:46.863Z,14.89
2022-09-20T19:15:38.630Z,14.88
2022-09-20T19:18:37.789Z,14.85
2022-09-20T19:21:06.946Z,14.86
2022-09-20T19:23:41.310Z,14.90
2022-09-20T19:26:24.620Z,14.94
2022-09-20T19:29:00.176Z,14.97
2022-09-20T19:31:29.746Z,14.96
2022-09-20T19:33:58.669Z,14.92
2022-09-20T19:36:39.669Z,14.86
2022-09-20T19:39:34.421Z,14.87
2022-09-20T19:42:26.805Z,14.87
2022-09-20T19:45:16.647Z,14.89
2022-09-20T19:48:16.602Z,14.90
2022-09-20T19:50:46.376Z,14.88
2022-09-20T19:53:14.689Z,14.82
2022-09-20T19:55:46.254Z,14.75
2022-09-20T19:58:14.345Z,14.78
2022-09-20T20:00:44.519Z,14.78
2022-09-20T20:03:16.319Z,14.66
2022-09-20T20:06:07.094Z,14.65
2022-09-20T20:08:45.795Z,14.62
2022-09-20T20:11:27.960Z,14.63
2022-09-20T20:14:33.389Z,14.64
2022-09-20T20:17:28.908Z,14.60
2022-09-20T20:20:13.442Z,14.64
2022-09-20T20:22:46.993Z,14.62
2022-09-20T20:25:47.036Z,14.68
2022-09-20T20:28:14.111Z,14.68
2022-09-20T20:30:41.174Z,14.73
2022-09-20T20:33:08.580Z,14.77
2022-09-20T20:35:37.373Z,14.82
2022-09-20T20:38:11.524Z,14.87
2022-09-20T20:40:38.444Z,14.89
2022-09-20T20:43:06.258Z,14.93
2022-09-20T20:45:32.939Z,14.96
2022-09-20T20:48:00.009Z,15.00
2022-09-20T20:50:28.262Z,15.03
2022-09-20T20:52:56.239Z,15.06
2022-09-20T20:55:25.707Z,15.08
2022-09-20T20:57:59.578Z,15.08
2022-09-20T21:00:27.474Z,15.09
2022-09-20T21:02:58.704Z,15.12
2022-09-20T21:05:27.002Z,15.10
2022-09-20T21:07:54.917Z,15.11
2022-09-20T21:10:22.198Z,15.11
2022-09-20T21:12:53.121Z,15.10
2022-09-20T21:15:20.162Z,15.08
2022-09-20T21:17:53.504Z,15.04
2022-09-20T21:20:24.239Z,14.96
2022-09-20T21:22:50.993Z,14.86
2022-09-20T21:25:17.583Z,14.76
2022-09-20T21:27:45.715Z,14.70
2022-09-20T21:30:12.643Z,14.62
2022-09-20T21:32:39.216Z,14.55
2022-09-20T21:35:06.062Z,14.49
2022-09-20T21:37:32.611Z,14.45
2022-09-20T21:40:00.630Z,14.43
2022-09-20T21:42:28.698Z,14.44
2022-09-20T21:44:55.651Z,14.43
2022-09-20T21:47:22.498Z,14.43
2022-09-20T21:49:49.212Z,14.40
2022-09-20T21:52:15.844Z,14.37
2022-09-20T21:54:46.353Z,14.34
2022-09-20T21:57:13.788Z,14.27
2022-09-20T21:59:40.965Z,14.24
2022-09-20T22:02:07.835Z,14.22
2022-09-20T22:04:34.973Z,14.18
2022-09-20T22:07:03.977Z,14.15
2022-09-20T22:09:31.074Z,14.09
2022-09-20T22:11:57.811Z,14.03
2022-09-20T22:14:24.564Z,13.99
2022-09-20T22:16:51.390Z,13.93
2022-09-20T22:19:19.002Z,13.88
2022-09-20T22:21:48.157Z,13.83
2022-09-20T22:24:16.017Z,13.77
2022-09-20T22:26:45.715Z,13.72
2022-09-20T22:29:12.989Z,13.67
2022-09-20T22:31:45.146Z,13.63
2022-09-20T22:34:16.813Z,13.63
2022-09-20T22:36:43.667Z,13.62
2022-09-20T22:39:12.296Z,13.62
2022-09-20T22:41:41.027Z,13.56
2022-09-20T22:44:07.944Z,13.53
2022-09-20T22:46:35.210Z,13.49
2022-09-20T22:49:05.533Z,13.49
2022-09-20T22:51:33.351Z,13.49
2022-09-20T22:54:03.846Z,13.47
2022-09-20T22:56:31.444Z,13.44
2022-09-20T22:59:00.390Z,13.42
2022-09-20T23:01:29.501Z,13.39
2022-09-20T23:04:00.914Z,13.37
2022-09-20T23:06:31.085Z,13.34
2022-09-20T23:09:00.640Z,13.33
2022-09-20T23:11:28.338Z,13.38
2022-09-20T23:13:57.291Z,13.44
2022-09-20T23:16:30.454Z,13.41
2022-09-20T23:18:58.919Z,13.36
2022-09-20T23:21:26.374Z,13.28
2022-09-20T23:23:58.337Z,13.19
2022-09-20T23:26:26.488Z,13.14
2022-09-20T23:28:58.671Z,13.12
2022-09-20T23:31:26.694Z,13.07
2022-09-20T23:33:55.598Z,13.04
2022-09-20T23:36:27.097Z,12.95
2022-09-20T23:38:53.993Z,12.92
2022-09-20T23:41:23.005Z,12.85
2022-09-20T23:43:49.870Z,12.84
2022-09-20T23:46:18.593Z,12.81
2022-09-20T23:48:45.662Z,12.76
2022-09-20T23:51:18.736Z,12.74
2022-09-20T23:53:46.006Z,12.71
2022-09-20T23:56:13.662Z,12.72
2022-09-20T23:58:42.572Z,12.71
